Time;durP1;ratioP1;P1;durP2;ratioP2;P2;SDS_P1;SDS_P2;PMS_P1;PMS_P2;Temp;Humidity;BMP_temperature;BMP_pressure;BME280_temperature;BME280_humidity;BME280_pressure;Samples;Min_cycle;Max_cycle;Signal;HPM_P1;HPM_P2
2021/12/18 00:09:18;;;;;;;0.10;0.00;;;6.50;67.00;;;;;;20739506;28;20115;-50
2021/12/18 00:19:25;;;;;;;0.00;0.00;;;6.30;67.10;;;;;;20722248;28;20123;-48
2021/12/18 00:29:28;;;;;;;0.43;0.10;;;6.10;66.30;;;;;;20723657;28;20037;-49
2021/12/18 00:39:32;;;;;;;0.55;0.00;;;6.00;67.50;;;;;;20764147;28;20111;-47
2021/12/18 00:49:35;;;;;;;0.20;0.00;;;6.10;66.20;;;;;;20737466;28;20556;-48
2021/12/18 00:59:38;;;;;;;0.00;0.00;;;6.10;66.20;;;;;;20815954;28;20041;-47
2021/12/18 01:09:57;;;;;;;0.00;0.00;;;6.20;65.30;;;;;;20800667;28;20037;-47
2021/12/18 01:30:20;;;;;;;1.02;0.10;;;5.70;67.70;;;;;;20744805;28;20042;-48
2021/12/18 01:40:24;;;;;;;0.10;0.00;;;5.60;65.80;;;;;;20767390;28;20045;-49
2021/12/18 02:00:49;;;;;;;0.23;0.10;;;5.60;67.20;;;;;;20812861;28;20037;-48
2021/12/18 02:11:01;;;;;;;0.35;0.08;;;5.40;68.30;;;;;;20796048;28;20033;-48
2021/12/18 02:21:12;;;;;;;0.30;0.10;;;5.70;67.40;;;;;;20811515;28;20033;-47
2021/12/18 02:31:15;;;;;;;0.10;0.00;;;5.60;66.90;;;;;;20810935;28;20041;-47
2021/12/18 02:41:33;;;;;;;0.75;0.13;;;5.70;65.30;;;;;;20809791;28;20107;-47
2021/12/18 02:51:38;;;;;;;0.30;0.03;;;5.90;65.50;;;;;;20808483;28;20082;-47
2021/12/18 03:01:43;;;;;;;0.63;0.05;;;5.70;65.40;;;;;;20808662;28;20057;-47
2021/12/18 03:32:43;;;;;;;0.43;0.10;;;5.50;66.40;;;;;;20569761;28;20043;-48
2021/12/18 03:42:47;;;;;;;0.05;0.00;;;5.70;64.50;;;;;;20569364;28;20223;-50
2021/12/18 03:52:50;;;;;;;0.08;0.08;;;5.80;63.00;;;;;;20616246;28;20045;-49
2021/12/18 04:02:52;;;;;;;0.20;0.00;;;5.60;62.60;;;;;;20693344;28;20030;-47
2021/12/18 04:12:59;;;;;;;0.30;0.00;;;5.60;62.90;;;;;;20639869;28;20476;-47
2021/12/18 04:23:02;;;;;;;0.17;0.05;;;5.80;63.60;;;;;;20639319;28;20038;-48
2021/12/18 04:33:05;;;;;;;0.00;0.00;;;5.80;64.70;;;;;;20638687;28;20034;-49
2021/12/18 04:43:07;;;;;;;0.05;0.00;;;5.90;63.20;;;;;;20785306;28;20119;-47
2021/12/18 04:53:10;;;;;;;0.10;0.00;;;6.00;63.60;;;;;;20783687;28;20041;-48
2021/12/18 05:03:14;;;;;;;0.10;0.00;;;6.00;64.10;;;;;;20783620;28;20083;-47
2021/12/18 05:13:17;;;;;;;0.03;0.00;;;5.70;64.10;;;;;;20801436;28;20037;-51
2021/12/18 05:23:21;;;;;;;0.00;0.00;;;6.50;62.30;;;;;;20800128;28;20454;-49
2021/12/18 05:33:23;;;;;;;0.08;0.00;;;6.20;65.80;;;;;;20736603;28;20583;-48
2021/12/18 05:43:26;;;;;;;0.52;0.00;;;5.70;66.40;;;;;;20803897;28;20529;-47
2021/12/18 05:53:28;;;;;;;0.20;0.10;;;5.70;66.10;;;;;;20813191;28;20393;-48
2021/12/18 06:03:31;;;;;;;0.52;0.10;;;5.10;68.20;;;;;;20812729;28;20067;-50
2021/12/18 06:13:34;;;;;;;0.10;0.00;;;5.40;66.70;;;;;;20795727;28;20096;-48
2021/12/18 06:23:38;;;;;;;0.30;0.10;;;5.40;67.90;;;;;;20811543;28;20038;-49
2021/12/18 06:33:41;;;;;;;0.10;0.10;;;5.20;69.60;;;;;;20809242;28;20490;-50
2021/12/18 06:43:43;;;;;;;0.22;0.00;;;4.10;69.90;;;;;;20809841;28;20087;-48
2021/12/18 06:53:47;;;;;;;0.00;0.00;;;3.70;76.60;;;;;;20808865;28;20095;-47
2021/12/18 07:03:49;;;;;;;0.20;0.10;;;3.30;78.70;;;;;;20807959;28;20045;-53
2021/12/18 07:13:52;;;;;;;0.57;0.20;;;2.70;80.70;;;;;;20807310;28;20368;-48
2021/12/18 07:23:54;;;;;;;0.35;0.10;;;2.20;83.90;;;;;;20806685;28;20552;-49
2021/12/18 07:33:57;;;;;;;0.30;0.10;;;1.90;88.10;;;;;;20805733;28;20030;-47
2021/12/18 07:43:59;;;;;;;0.30;0.10;;;1.50;90.90;;;;;;20805358;28;20045;-48
2021/12/18 07:54:03;;;;;;;0.30;0.13;;;1.60;88.40;;;;;;20804371;28;20075;-50
2021/12/18 08:04:06;;;;;;;0.10;0.03;;;2.30;90.00;;;;;;20803334;28;20091;-49
2021/12/18 08:14:08;;;;;;;0.45;0.20;;;3.60;76.70;;;;;;20802462;28;20037;-50
2021/12/18 08:24:11;;;;;;;0.10;0.00;;;5.40;76.90;;;;;;20803629;28;20029;-49
2021/12/18 08:34:14;;;;;;;0.20;0.10;;;6.10;72.90;;;;;;20801643;28;20067;-47
2021/12/18 08:44:16;;;;;;;0.95;0.40;;;7.00;65.90;;;;;;20800808;28;20053;-48
2021/12/18 08:54:19;;;;;;;0.93;0.60;;;7.00;77.70;;;;;;20800642;28;20029;-49
2021/12/18 09:04:21;;;;;;;1.02;0.50;;;6.90;78.70;;;;;;20799971;28;20037;-50
2021/12/18 09:14:23;;;;;;;1.38;0.68;;;6.70;78.60;;;;;;20799089;28;20042;-49
2021/12/18 09:24:26;;;;;;;2.80;1.52;;;7.10;79.50;;;;;;20798502;28;20080;-48
2021/12/18 09:34:30;;;;;;;3.17;1.55;;;7.10;83.90;;;;;;20798351;28;20033;-49
2021/12/18 09:44:35;;;;;;;2.20;1.50;;;7.10;82.80;;;;;;20782922;28;20053;-49
2021/12/18 09:54:38;;;;;;;4.60;2.35;;;7.40;83.80;;;;;;20731743;28;20033;-50
2021/12/18 10:04:40;;;;;;;5.78;2.38;;;7.70;84.30;;;;;;20783413;28;20033;-49
2021/12/18 10:14:52;;;;;;;4.13;2.83;;;7.80;84.30;;;;;;20811493;28;20041;-48
2021/12/18 10:25:07;;;;;;;4.05;2.33;;;8.00;86.30;;;;;;20811001;28;20041;-48
2021/12/18 10:35:09;;;;;;;6.70;3.45;;;7.90;87.20;;;;;;20809523;28;20049;-48
2021/12/18 10:45:24;;;;;;;7.18;3.42;;;8.10;89.90;;;;;;20809491;28;20505;-48
2021/12/18 10:55:33;;;;;;;8.85;3.90;;;8.20;90.60;;;;;;20808596;28;20037;-54
2021/12/18 11:05:35;;;;;;;10.30;4.35;;;8.40;91.80;;;;;;20809245;28;20474;-55
2021/12/18 11:15:37;;;;;;;8.05;4.50;;;8.00;92.50;;;;;;20806730;28;20113;-56
2021/12/18 11:25:41;;;;;;;8.55;4.40;;;8.00;92.80;;;;;;20806664;28;20033;-55
2021/12/18 11:35:44;;;;;;;7.93;4.65;;;8.20;93.60;;;;;;20805715;28;20490;-57
2021/12/18 11:45:47;;;;;;;10.27;4.70;;;8.30;93.90;;;;;;20804904;28;20486;-57
2021/12/18 11:55:49;;;;;;;9.38;4.38;;;8.40;94.40;;;;;;20804120;28;20037;-58
2021/12/18 12:05:54;;;;;;;10.93;5.45;;;8.30;94.40;;;;;;20751749;28;20096;-56
2021/12/18 12:15:56;;;;;;;11.27;6.43;;;8.30;95.60;;;;;;20721122;28;20092;-57
2021/12/18 12:26:01;;;;;;;13.35;5.97;;;7.50;96.70;;;;;;20742809;28;20391;-58
2021/12/18 12:36:25;;;;;;;11.98;5.53;;;7.40;97.90;;;;;;20730736;28;20042;-57
2021/12/18 12:46:30;;;;;;;11.43;6.68;;;7.50;97.80;;;;;;20801873;28;20037;-57
2021/12/18 12:56:35;;;;;;;10.88;6.80;;;7.20;98.40;;;;;;20801366;28;20115;-57
2021/12/18 13:06:38;;;;;;;14.43;7.15;;;6.70;99.30;;;;;;20800216;28;20037;-48
2021/12/18 13:16:40;;;;;;;14.18;7.68;;;6.20;99.90;;;;;;20799510;28;20063;-49
2021/12/18 13:26:45;;;;;;;13.25;7.55;;;5.70;99.90;;;;;;20798955;28;20060;-50
2021/12/18 13:36:58;;;;;;;17.25;8.77;;;5.40;99.90;;;;;;20803496;28;20045;-48
2021/12/18 13:47:13;;;;;;;16.17;9.38;;;4.70;99.90;;;;;;20814431;28;20064;-47
2021/12/18 13:57:22;;;;;;;20.15;11.80;;;4.40;99.90;;;;;;20813699;28;20046;-48
2021/12/18 14:07:24;;;;;;;17.02;9.43;;;4.10;99.90;;;;;;20815151;28;20037;-50
2021/12/18 14:17:27;;;;;;;20.33;9.98;;;3.90;99.90;;;;;;20813774;28;20033;-50
2021/12/18 14:27:45;;;;;;;17.27;10.05;;;3.80;99.90;;;;;;20811553;28;20320;-48
2021/12/18 14:37:54;;;;;;;20.95;11.40;;;3.80;99.90;;;;;;20810623;28;20072;-48
2021/12/18 14:48:00;;;;;;;17.17;8.98;;;3.60;99.90;;;;;;20809046;28;20068;-48
2021/12/18 14:58:11;;;;;;;23.85;11.20;;;3.50;99.90;;;;;;20809374;28;20135;-50
2021/12/18 15:08:44;;;;;;;28.73;13.60;;;3.20;99.90;;;;;;20808620;28;20410;-48
2021/12/18 15:18:47;;;;;;;25.95;12.35;;;2.70;99.90;;;;;;20808243;28;20029;-47
2021/12/18 15:28:51;;;;;;;23.52;8.32;;;2.10;99.90;;;;;;20806887;28;20037;-46
2021/12/18 15:38:54;;;;;;;8.63;4.65;;;1.60;99.90;;;;;;20790064;28;20136;-50
2021/12/18 15:48:59;;;;;;;4.25;2.28;;;1.60;99.90;;;;;;20805689;28;20125;-48
2021/12/18 15:59:02;;;;;;;3.35;1.40;;;1.50;99.90;;;;;;20804023;28;20034;-48
2021/12/18 16:09:05;;;;;;;4.90;1.10;;;1.40;99.90;;;;;;20661136;28;20042;-47
2021/12/18 16:19:08;;;;;;;2.28;0.90;;;1.40;99.90;;;;;;20656389;28;20038;-51
2021/12/18 16:29:10;;;;;;;2.47;0.77;;;1.40;99.90;;;;;;20655473;28;20105;-49
2021/12/18 16:39:13;;;;;;;1.33;0.50;;;1.40;99.90;;;;;;20744466;28;20065;-47
2021/12/18 16:49:15;;;;;;;1.35;0.60;;;1.40;99.90;;;;;;20719443;28;20096;-49
2021/12/18 16:59:19;;;;;;;0.75;0.40;;;1.30;99.90;;;;;;20703054;28;20037;-47
2021/12/18 17:09:21;;;;;;;1.95;0.63;;;1.30;99.90;;;;;;20719183;28;20482;-47
2021/12/18 17:19:24;;;;;;;0.80;0.47;;;1.30;99.90;;;;;;20798296;28;20570;-47
2021/12/18 17:29:27;;;;;;;1.27;0.30;;;1.30;99.90;;;;;;20798945;28;20140;-48
2021/12/18 17:39:29;;;;;;;1.23;0.20;;;1.30;99.90;;;;;;20782946;28;20053;-47
2021/12/18 17:49:32;;;;;;;1.95;0.30;;;1.30;99.90;;;;;;20799365;28;20038;-48
2021/12/18 17:59:35;;;;;;;0.47;0.20;;;1.20;99.90;;;;;;20797659;28;20041;-48
2021/12/18 18:09:40;;;;;;;0.82;0.30;;;1.20;99.90;;;;;;20716641;28;20034;-49
2021/12/18 18:19:45;;;;;;;0.52;0.30;;;1.10;99.90;;;;;;20697718;28;20069;-47
2021/12/18 18:29:49;;;;;;;0.47;0.30;;;1.10;99.90;;;;;;20729251;28;20450;-48
2021/12/18 18:39:51;;;;;;;0.35;0.10;;;1.10;99.90;;;;;;20764656;28;20069;-48
2021/12/18 18:49:54;;;;;;;0.43;0.20;;;1.10;99.90;;;;;;20809993;28;20038;-48
2021/12/18 18:59:57;;;;;;;0.68;0.22;;;1.10;99.90;;;;;;20810368;28;20099;-52
2021/12/18 19:10:00;;;;;;;0.75;0.20;;;1.30;99.90;;;;;;20808682;28;20045;-47
2021/12/18 19:20:08;;;;;;;0.55;0.20;;;1.20;99.90;;;;;;20674732;28;20487;-48
2021/12/18 19:30:24;;;;;;;0.77;0.10;;;1.00;99.90;;;;;;20660715;28;20069;-47
2021/12/18 19:40:27;;;;;;;0.35;0.10;;;1.10;99.90;;;;;;20751117;28;20045;-48
2021/12/18 19:50:32;;;;;;;0.28;0.17;;;1.10;99.90;;;;;;20805317;28;20037;-49
2021/12/18 20:00:38;;;;;;;0.65;0.20;;;1.10;99.90;;;;;;20804400;28;20551;-47
2021/12/18 20:10:41;;;;;;;1.42;0.10;;;1.30;99.90;;;;;;20803605;28;20087;-48
2021/12/18 20:20:44;;;;;;;0.90;0.10;;;1.30;99.90;;;;;;20801990;28;20033;-47
2021/12/18 20:30:49;;;;;;;0.55;0.10;;;1.30;99.90;;;;;;20802564;28;20038;-47
2021/12/18 20:40:52;;;;;;;0.40;0.10;;;1.20;99.90;;;;;;20801023;28;20053;-49
2021/12/18 20:50:55;;;;;;;0.17;0.00;;;1.20;99.90;;;;;;20799920;28;20045;-47
2021/12/18 21:01:05;;;;;;;0.20;0.10;;;1.50;99.90;;;;;;20800203;28;20095;-48
2021/12/18 21:11:13;;;;;;;0.35;0.20;;;1.40;99.90;;;;;;20801050;28;20063;-49
2021/12/18 21:21:18;;;;;;;0.95;0.40;;;1.30;99.90;;;;;;20798286;28;20046;-48
2021/12/18 21:31:22;;;;;;;0.13;0.10;;;1.40;99.90;;;;;;20798483;28;20486;-47
2021/12/18 21:41:24;;;;;;;0.93;0.20;;;1.40;99.90;;;;;;20798579;28;20045;-48
2021/12/18 21:51:27;;;;;;;0.52;0.13;;;1.70;99.90;;;;;;20799504;28;20033;-47
2021/12/18 22:01:31;;;;;;;0.65;0.20;;;1.90;99.90;;;;;;20792557;28;20033;-47
2021/12/18 22:11:44;;;;;;;0.20;0.10;;;1.80;99.90;;;;;;20730935;28;20494;-47
2021/12/18 22:21:47;;;;;;;0.00;0.00;;;1.70;99.90;;;;;;20731155;28;20109;-47
2021/12/18 22:31:50;;;;;;;0.50;0.10;;;1.60;99.90;;;;;;20729969;28;20482;-49
2021/12/18 22:41:52;;;;;;;0.20;0.10;;;1.40;99.90;;;;;;20798057;28;20103;-48
2021/12/18 22:51:55;;;;;;;1.30;0.40;;;1.30;99.90;;;;;;20810121;28;20417;-52
2021/12/18 23:01:58;;;;;;;1.27;0.50;;;1.40;99.90;;;;;;20809744;28;20382;-48
2021/12/18 23:12:10;;;;;;;0.43;0.20;;;1.40;99.90;;;;;;20806461;28;20045;-47
2021/12/18 23:22:12;;;;;;;0.05;0.00;;;1.40;99.90;;;;;;20726488;28;20092;-48
2021/12/18 23:32:16;;;;;;;0.35;0.10;;;1.50;99.90;;;;;;20725813;28;20034;-50
2021/12/18 23:42:18;;;;;;;1.15;0.20;;;1.70;99.90;;;;;;20783861;28;20414;-50
2021/12/18 23:52:21;;;;;;;0.45;0.10;;;1.60;99.90;;;;;;20649694;28;20112;-49
